Time;durP1;ratioP1;P1;durP2;ratioP2;P2;SDS_P1;SDS_P2;PMS_P1;PMS_P2;Temp;Humidity;BMP_temperature;BMP_pressure;BME280_temperature;BME280_humidity;BME280_pressure;Samples;Min_cycle;Max_cycle;Signal;HPM_P1;HPM_P2
2021/12/12 00:01:12;;;;;;;16.20;4.47;;;;;;;10.00;100.00;97598.28;4887076;29;20357;-86
2021/12/12 00:03:41;;;;;;;13.93;4.90;;;;;;;11.21;100.00;97793.41;4903337;29;20186;-87
2021/12/12 00:06:15;;;;;;;14.77;5.50;;;;;;;12.51;100.00;98021.84;4891206;29;20278;-89
2021/12/12 00:08:49;;;;;;;20.10;6.50;;;;;;;12.55;100.00;97977.91;4885622;29;20176;-87
2021/12/12 00:11:17;;;;;;;22.07;6.80;;;;;;;12.44;100.00;97960.84;4885299;29;20763;-86
2021/12/12 00:13:48;;;;;;;19.03;6.63;;;;;;;12.55;100.00;97968.63;4870808;29;20205;-87
2021/12/12 00:16:14;;;;;;;18.30;6.67;;;;;;;11.74;100.00;97780.69;4872158;29;20286;-87
2021/12/12 00:18:41;;;;;;;16.73;5.83;;;;;;;12.50;100.00;97921.19;4886375;29;20236;-86
2021/12/12 00:21:09;;;;;;;15.67;6.43;;;;;;;11.22;100.00;97685.38;4875308;29;20201;-88
2021/12/12 00:23:35;;;;;;;21.33;6.17;;;;;;;11.38;100.00;97706.69;4907104;29;20237;-87
2021/12/12 00:26:01;;;;;;;17.13;5.87;;;;;;;11.91;100.00;97784.28;4904704;29;20183;-88
2021/12/12 00:28:28;;;;;;;11.20;4.67;;;;;;;10.66;100.00;97522.59;4909287;29;20262;-87
2021/12/12 00:30:57;;;;;;;15.87;4.80;;;;;;;9.66;100.00;97407.41;4906229;29;20175;-87
2021/12/12 00:33:23;;;;;;;14.77;4.77;;;;;;;12.40;100.00;97869.44;4905364;29;20660;-86
2021/12/12 00:35:50;;;;;;;14.23;4.67;;;;;;;12.19;100.00;97847.22;4903928;29;20190;-85
2021/12/12 00:38:30;;;;;;;14.93;4.60;;;;;;;10.03;100.00;97490.50;4914191;29;20174;-85
2021/12/12 00:41:00;;;;;;;15.47;4.20;;;;;;;10.25;100.00;97506.00;4912860;29;20178;-87
2021/12/12 00:43:30;;;;;;;11.23;4.00;;;;;;;9.24;100.00;97354.56;4909211;29;20171;-86
2021/12/12 00:45:59;;;;;;;12.80;4.70;;;;;;;10.70;100.00;97625.56;4905249;29;20183;-85
2021/12/12 00:48:26;;;;;;;15.20;5.17;;;;;;;10.37;100.00;97594.72;4904607;29;20170;-87
2021/12/12 00:50:52;;;;;;;15.70;4.63;;;;;;;11.77;100.00;97841.56;4890268;29;20171;-88
2021/12/12 00:53:20;;;;;;;16.23;5.00;;;;;;;12.16;100.00;97887.75;4904682;29;20198;-87
2021/12/12 00:55:48;;;;;;;13.77;4.73;;;;;;;8.91;100.00;97331.28;4890284;29;20175;-87
2021/12/12 00:58:16;;;;;;;17.83;4.73;;;;;;;9.88;100.00;97528.19;4921885;29;20159;-86
2021/12/12 01:00:50;;;;;;;12.13;4.60;;;;;;;9.20;100.00;97399.94;4922248;29;20202;-87
2021/12/12 01:03:25;;;;;;;13.67;4.17;;;;;;;8.95;100.00;97405.38;4903861;29;20174;-87
2021/12/12 01:05:52;;;;;;;11.37;4.17;;;;;;;11.08;100.00;97734.97;4902994;29;20719;-87
2021/12/12 01:08:18;;;;;;;11.27;4.60;;;;;;;10.33;100.00;97613.22;4903521;29;20186;-86
2021/12/12 01:10:57;;;;;;;8.50;3.37;;;;;;;10.37;100.00;97665.53;4903632;29;20278;-87
2021/12/12 01:13:23;;;;;;;9.17;3.73;;;;;;;10.80;100.00;97718.50;4903115;29;20206;-87
2021/12/12 01:15:50;;;;;;;9.17;4.00;;;;;;;12.24;100.00;97981.72;4901368;29;20194;-87
2021/12/12 01:18:20;;;;;;;11.23;4.50;;;;;;;11.08;100.00;97800.81;4900308;29;20175;-87
2021/12/12 01:20:59;;;;;;;9.77;3.93;;;;;;;10.86;100.00;97797.06;4904623;29;20231;-87
2021/12/12 01:23:48;;;;;;;9.93;4.47;;;;;;;12.15;100.00;97997.66;4900943;29;20226;-86
2021/12/12 01:26:13;;;;;;;9.47;4.40;;;;;;;10.72;100.00;97800.19;4843913;29;20588;-86
2021/12/12 01:28:43;;;;;;;11.77;4.53;;;;;;;12.24;100.00;98027.38;4843702;29;20199;-87
2021/12/12 01:31:24;;;;;;;10.97;5.17;;;;;;;10.38;100.00;97716.13;4845566;29;20192;-87
2021/12/12 01:34:09;;;;;;;10.53;4.37;;;;;;;11.32;100.00;97879.69;4847336;29;20200;-87
2021/12/12 01:39:26;;;;;;;7.10;3.53;;;;;;;11.12;100.00;97866.72;4771402;30;20184;-87
2021/12/12 01:42:05;;;;;;;7.70;3.17;;;;;;;11.38;100.00;97909.34;4756233;30;20203;-87
2021/12/12 01:44:41;;;;;;;4.43;2.00;;;;;;;10.75;100.00;97801.09;4766131;30;20229;-88
2021/12/12 01:47:10;;;;;;;5.33;2.40;;;;;;;11.52;100.00;97935.78;4780866;30;20213;-88
2021/12/12 01:49:40;;;;;;;3.17;2.00;;;;;;;11.73;100.00;97974.16;4783221;30;20190;-86
2021/12/12 01:52:12;;;;;;;3.43;1.80;;;;;;;11.03;100.00;97851.38;4767751;30;20202;-88
2021/12/12 01:54:44;;;;;;;2.63;1.50;;;;;;;8.28;100.00;97397.38;4767037;30;20194;-88
2021/12/12 01:57:17;;;;;;;3.43;1.60;;;;;;;12.07;100.00;98024.59;4807281;29;20193;-85
2021/12/12 01:59:46;;;;;;;2.97;1.27;;;;;;;10.61;100.00;97782.28;4825301;29;20668;-86
2021/12/12 02:02:20;;;;;;;2.80;1.00;;;;;;;8.26;100.00;97395.63;4827374;29;20197;-87
2021/12/12 02:04:51;;;;;;;3.67;1.30;;;;;;;11.26;100.00;97912.56;4834456;29;20285;-86
2021/12/12 02:07:23;;;;;;;1.70;1.30;;;;;;;11.26;100.00;97918.44;4826027;29;20200;-86
2021/12/12 02:09:50;;;;;;;1.97;1.20;;;;;;;11.65;100.00;97985.81;4809018;29;20193;-87
2021/12/12 02:12:20;;;;;;;1.57;0.80;;;;;;;11.80;98.60;97993.72;4823645;29;20166;-86
2021/12/12 02:14:46;;;;;;;1.40;0.90;;;;;;;11.14;96.19;97839.75;4823671;29;20186;-86
2021/12/12 02:17:26;;;;;;;2.20;1.30;;;;;;;10.33;96.28;97710.13;4885721;29;20682;-88
2021/12/12 02:36:17;;;;;;;7.50;2.80;;;;;;;11.27;100.00;98034.16;4902045;29;20242;-86
2021/12/12 02:38:43;;;;;;;2.97;1.63;;;;;;;11.25;100.00;98078.88;4898298;29;20179;-86
2021/12/12 02:41:14;;;;;;;3.93;1.80;;;;;;;10.77;100.00;97980.84;4899297;29;20252;-86
2021/12/12 02:43:46;;;;;;;4.07;1.90;;;;;;;8.94;100.00;97683.72;4899235;29;20175;-87
2021/12/12 02:46:16;;;;;;;3.90;2.10;;;;;;;11.23;100.00;98070.38;4908389;29;20605;-86
2021/12/12 02:48:45;;;;;;;40.67;17.30;;;;;;;8.81;100.00;97683.47;4888833;29;20175;-87
2021/12/12 02:51:16;;;;;;;9.90;3.60;;;;;;;10.07;100.00;97916.97;4899295;29;20170;-87
2021/12/12 02:53:46;;;;;;;5.10;2.10;;;;;;;10.42;100.00;97982.63;4899282;29;20724;-85
2021/12/12 02:56:18;;;;;;;9.07;3.27;;;;;;;10.74;100.00;98075.25;4882881;29;20182;-87
2021/12/12 02:58:44;;;;;;;6.40;2.43;;;;;;;8.63;100.00;97735.13;4898982;29;20206;-86
2021/12/12 03:01:15;;;;;;;7.57;2.40;;;;;;;10.68;100.00;98077.69;4902006;29;20178;-86
2021/12/12 03:03:44;;;;;;;4.87;2.00;;;;;;;10.32;100.00;98023.72;4898577;29;20194;-88
2021/12/12 03:06:15;;;;;;;3.57;2.00;;;;;;;9.26;100.00;97849.38;4898750;29;20163;-87
2021/12/12 03:08:43;;;;;;;12.07;4.97;;;;;;;10.44;100.00;98046.75;4898979;29;20187;-87
2021/12/12 03:11:10;;;;;;;12.93;4.87;;;;;;;10.42;100.00;98083.81;4897612;29;20644;-87
2021/12/12 03:13:37;;;;;;;7.03;3.80;;;;;;;9.65;100.00;97976.63;4897485;29;20664;-87
2021/12/12 03:16:05;;;;;;;6.67;3.20;;;;;;;8.24;100.00;97735.00;4896966;29;20178;-86
2021/12/12 03:18:39;;;;;;;6.20;3.07;;;;;;;9.52;100.00;97961.13;4881636;29;20213;-86
2021/12/12 03:21:14;;;;;;;6.30;3.10;;;;;;;10.16;100.00;98084.91;4897186;29;20567;-87
2021/12/12 03:23:48;;;;;;;10.50;5.67;;;;;;;7.56;100.00;97668.50;4881406;29;20653;-86
2021/12/12 03:26:14;;;;;;;9.83;4.70;;;;;;;8.78;100.00;97912.97;4898007;29;20187;-87
2021/12/12 03:28:45;;;;;;;9.53;3.77;;;;;;;7.80;100.00;97761.47;4899922;29;20163;-85
2021/12/12 03:31:17;;;;;;;6.90;3.90;;;;;;;8.09;100.00;97800.09;4902431;29;20779;-86
2021/12/12 03:33:43;;;;;;;7.47;4.40;;;;;;;10.00;100.00;98135.03;4915814;29;20203;-87
2021/12/12 03:36:11;;;;;;;8.33;4.60;;;;;;;10.06;100.00;98135.19;4903334;29;20257;-86
2021/12/12 03:38:41;;;;;;;8.73;5.00;;;;;;;8.70;100.00;97932.09;4906564;29;20171;-88
2021/12/12 03:41:12;;;;;;;11.10;5.73;;;;;;;7.82;100.00;97774.13;4906871;29;20175;-87
2021/12/12 03:43:38;;;;;;;11.47;6.30;;;;;;;8.79;100.00;97946.59;4901966;29;20179;-87
2021/12/12 03:46:10;;;;;;;48.60;20.40;;;;;;;9.43;100.00;98062.78;4898114;29;20182;-87
2021/12/12 03:48:39;;;;;;;40.43;18.87;;;;;;;7.75;100.00;97763.03;4897592;29;20235;-86
2021/12/12 03:51:08;;;;;;;35.60;16.10;;;;;;;6.84;100.00;97653.84;4881333;29;20183;-84
2021/12/12 03:53:35;;;;;;;38.67;18.20;;;;;;;9.75;100.00;98130.16;4897899;29;20282;-87
2021/12/12 03:56:02;;;;;;;34.67;16.57;;;;;;;8.42;100.00;97922.06;4901467;29;20206;-86
2021/12/12 03:58:27;;;;;;;25.77;12.00;;;;;;;9.24;100.00;98106.88;4902037;29;20206;-86
2021/12/12 04:01:07;;;;;;;21.40;9.93;;;;;;;9.72;100.00;98175.59;4901500;29;20174;-87
2021/12/12 04:03:34;;;;;;;18.43;9.10;;;;;;;9.79;100.00;98177.44;4901433;29;20178;-86
2021/12/12 04:06:03;;;;;;;34.43;18.73;;;;;;;9.78;100.00;98182.47;4900557;29;20716;-86
2021/12/12 04:08:34;;;;;;;50.80;28.00;;;;;;;9.26;100.00;98117.88;4912713;29;20235;-87
2021/12/12 04:11:02;;;;;;;63.73;32.73;;;;;;;9.46;100.00;98189.16;4923645;29;20155;-86
2021/12/12 04:13:28;;;;;;;66.60;34.80;;;;;;;9.39;100.00;98202.44;4907376;29;20190;-85
2021/12/12 04:15:56;;;;;;;36.17;20.70;;;;;;;9.40;100.00;98178.88;4908683;29;20179;-86
2021/12/12 04:18:25;;;;;;;73.33;38.20;;;;;;;8.01;100.00;97962.81;4918790;29;20202;-87
2021/12/12 04:20:51;;;;;;;95.27;50.10;;;;;;;8.05;100.00;97974.66;4909844;29;20258;-88
2021/12/12 04:23:20;;;;;;;71.87;40.97;;;;;;;8.87;100.00;98083.94;4903787;29;20253;-87
2021/12/12 04:25:47;;;;;;;76.87;40.93;;;;;;;8.45;100.00;98017.97;4901991;29;20202;-86
2021/12/12 04:28:13;;;;;;;52.83;29.17;;;;;;;9.33;100.00;98192.16;4902013;29;20197;-87
2021/12/12 04:30:39;;;;;;;43.57;25.37;;;;;;;8.99;100.00;98160.00;4901878;29;20194;-87
2021/12/12 04:33:06;;;;;;;29.80;15.80;;;;;;;9.31;100.00;98193.78;4902426;29;20599;-87
2021/12/12 04:35:32;;;;;;;35.97;17.23;;;;;;;8.93;100.00;98137.09;4900214;29;20626;-87
2021/12/12 04:38:00;;;;;;;30.10;13.60;;;;;;;8.79;100.00;98125.72;4903560;29;20587;-86
2021/12/12 04:40:30;;;;;;;25.67;11.67;;;;;;;9.22;100.00;98173.31;4919339;29;20611;-89
2021/12/12 04:42:56;;;;;;;19.50;11.00;;;;;;;8.63;100.00;98083.19;4920178;29;20167;-87
2021/12/12 04:46:04;;;;;;;23.70;12.23;;;;;;;7.70;100.00;97930.78;4919043;29;20178;-86
2021/12/12 04:51:50;;;;;;;12.23;6.10;;;;;;;9.28;100.00;98213.88;4919706;29;20662;-87
2021/12/12 04:54:33;;;;;;;11.43;5.27;;;;;;;8.28;100.00;98056.94;4919143;29;20261;-87
2021/12/12 04:57:04;;;;;;;11.03;5.80;;;;;;;9.33;100.00;98242.66;4919613;29;20178;-87
2021/12/12 04:59:39;;;;;;;10.23;4.77;;;;;;;9.10;100.00;98218.38;4919586;29;20229;-87
2021/12/12 05:02:17;;;;;;;8.50;4.50;;;;;;;8.88;100.00;98202.56;4919321;29;20198;-88
2021/12/12 05:05:10;;;;;;;9.40;4.00;;;;;;;9.04;100.00;98223.25;4902497;29;20259;-86
2021/12/12 05:08:00;;;;;;;8.53;4.87;;;;;;;9.00;100.00;98236.56;4824488;29;20240;-87
2021/12/12 05:10:34;;;;;;;9.23;4.63;;;;;;;9.14;100.00;98270.69;4825085;29;20717;-87
2021/12/12 05:13:02;;;;;;;8.17;4.20;;;;;;;9.00;100.00;98271.91;4824765;29;20260;-86
2021/12/12 05:15:41;;;;;;;9.40;5.07;;;;;;;8.27;100.00;98140.91;4827946;29;20185;-87
2021/12/12 05:18:19;;;;;;;12.97;7.40;;;;;;;7.89;100.00;98123.66;4827862;29;20208;-86
2021/12/12 05:20:49;;;;;;;12.13;6.77;;;;;;;8.94;100.00;98266.66;4830541;29;20264;-86
2021/12/12 05:23:18;;;;;;;13.27;7.33;;;;;;;7.13;100.00;97960.81;4809576;29;20240;-86
2021/12/12 05:25:59;;;;;;;21.17;13.80;;;;;;;8.20;100.00;98156.63;4824580;29;20189;-88
2021/12/12 05:28:33;;;;;;;20.17;11.70;;;;;;;8.20;100.00;98196.97;4825112;29;20574;-88
2021/12/12 05:31:00;;;;;;;55.83;31.03;;;;;;;7.70;100.00;98097.84;4824616;29;20698;-88
2021/12/12 05:33:29;;;;;;;36.20;21.67;;;;;;;6.47;100.00;97893.97;4824790;29;20205;-87
2021/12/12 05:35:55;;;;;;;23.30;14.47;;;;;;;7.98;100.00;98134.03;4809940;29;20720;-86
2021/12/12 05:38:23;;;;;;;21.70;12.33;;;;;;;8.09;100.00;98155.41;4824694;29;20197;-87
2021/12/12 05:40:49;;;;;;;25.27;13.87;;;;;;;8.15;100.00;98185.88;4810510;29;20618;-87
2021/12/12 05:43:16;;;;;;;24.90;14.33;;;;;;;8.45;100.00;98247.44;4809734;29;20177;-86
2021/12/12 05:45:42;;;;;;;243.73;114.13;;;;;;;8.41;100.00;98240.56;4917258;29;20193;-86
2021/12/12 05:48:09;;;;;;;117.87;55.33;;;;;;;7.22;100.00;98038.28;4923157;29;20194;-87
2021/12/12 05:50:36;;;;;;;159.20;75.27;;;;;;;8.51;100.00;98297.22;4924199;29;20174;-88
2021/12/12 05:53:02;;;;;;;150.37;80.13;;;;;;;6.15;100.00;97934.69;4920571;29;20205;-87
2021/12/12 05:55:31;;;;;;;73.53;41.20;;;;;;;6.38;100.00;97999.19;4922843;29;20185;-86
2021/12/12 05:57:59;;;;;;;73.80;41.00;;;;;;;7.70;100.00;98253.16;4928385;29;20186;-87
2021/12/12 06:00:37;;;;;;;69.47;39.77;;;;;;;6.78;100.00;98040.88;4920284;29;20203;-88
2021/12/12 06:03:07;;;;;;;82.23;44.97;;;;;;;7.85;100.00;98246.16;4916483;29;20568;-87
2021/12/12 06:05:34;;;;;;;72.53;41.07;;;;;;;6.16;100.00;97961.50;4918766;29;20194;-87
2021/12/12 06:08:01;;;;;;;77.60;43.20;;;;;;;7.80;100.00;98219.09;4905091;29;20178;-87
2021/12/12 06:10:27;;;;;;;83.33;45.97;;;;;;;6.69;100.00;98043.06;4921678;29;20232;-86
2021/12/12 06:12:54;;;;;;;136.30;67.57;;;;;;;8.62;100.00;98372.44;4931331;29;20206;-83
2021/12/12 06:15:23;;;;;;;64.83;36.93;;;;;;;6.57;100.00;98012.44;4924490;29;20178;-86
2021/12/12 06:17:51;;;;;;;46.97;28.80;;;;;;;8.78;100.00;98369.63;4922180;29;20198;-87
2021/12/12 06:20:17;;;;;;;87.70;41.23;;;;;;;7.77;100.00;98214.81;4919218;29;20269;-87
2021/12/12 06:22:43;;;;;;;42.60;23.83;;;;;;;8.10;100.00;98227.72;4918756;29;20253;-86
2021/12/12 06:25:10;;;;;;;37.67;20.70;;;;;;;8.52;100.00;98248.47;4920257;29;20170;-88
2021/12/12 06:27:37;;;;;;;33.03;17.83;;;;;;;10.02;100.00;98406.47;4921948;29;20635;-85
2021/12/12 06:30:10;;;;;;;168.50;67.03;;;;;;;9.97;100.00;98382.69;4909425;29;20177;-87
2021/12/12 06:32:36;;;;;;;122.07;66.87;;;;;;;9.16;100.00;98261.47;4921311;29;20265;-86
2021/12/12 06:35:03;;;;;;;59.97;35.60;;;;;;;8.58;100.00;98170.50;4924285;29;20186;-88
2021/12/12 06:37:29;;;;;;;40.90;26.97;;;;;;;8.23;100.00;98118.91;4911849;29;20741;-88
2021/12/12 06:39:56;;;;;;;63.67;45.97;;;;;;;9.59;100.00;98355.41;4923646;29;20174;-87
2021/12/12 06:42:23;;;;;;;18.80;11.30;;;;;;;7.08;100.00;97943.88;4909116;29;20182;-87
2021/12/12 06:44:48;;;;;;;20.87;13.53;;;;;;;8.46;100.00;98175.16;4922024;29;20181;-86
2021/12/12 06:47:17;;;;;;;14.03;7.30;;;;;;;10.00;100.00;98443.47;4923310;29;20252;-87
2021/12/12 06:49:46;;;;;;;22.40;14.73;;;;;;;10.06;100.00;98438.59;4934476;29;20190;-88
2021/12/12 06:52:14;;;;;;;18.60;12.83;;;;;;;8.11;100.00;98027.78;4934512;29;20249;-88
2021/12/12 06:54:40;;;;;;;22.53;13.23;;;;;;;9.82;100.00;97998.09;4932813;29;20166;-88
2021/12/12 06:57:10;;;;;;;17.33;10.23;;;;;;;14.28;100.00;98492.16;4930308;29;20184;-87
2021/12/12 06:59:38;;;;;;;14.37;7.60;;;;;;;11.74;95.71;98052.78;4910446;29;20278;-88
2021/12/12 07:02:07;;;;;;;12.40;7.47;;;;;;;12.07;97.28;98006.84;4915539;29;20586;-87
2021/12/12 07:04:37;;;;;;;14.33;8.20;;;;;;;16.79;88.37;98503.16;4931671;29;20204;-89
2021/12/12 07:07:09;;;;;;;11.17;7.37;;;;;;;16.19;81.06;98192.09;4920214;29;20707;-85
2021/12/12 07:09:37;;;;;;;10.73;6.37;;;;;;;14.59;78.97;98061.31;4930314;29;20627;-87
2021/12/12 07:12:05;;;;;;;12.43;6.80;;;;;;;14.76;81.32;98114.06;4925433;29;20214;-88
2021/12/12 07:14:33;;;;;;;11.17;5.77;;;;;;;16.43;77.50;98197.22;4927241;29;20301;-86
2021/12/12 07:16:59;;;;;;;12.97;8.40;;;;;;;15.86;74.11;97986.13;4909346;29;20174;-89
2021/12/12 07:19:26;;;;;;;12.70;8.03;;;;;;;17.81;73.98;98327.63;4927014;29;20226;-87
2021/12/12 07:21:53;;;;;;;11.97;6.50;;;;;;;19.24;71.24;98472.34;4917542;29;20226;-88
2021/12/12 07:24:21;;;;;;;11.30;6.73;;;;;;;15.74;74.45;98103.47;4936041;29;20187;-88
2021/12/12 07:26:47;;;;;;;12.90;7.27;;;;;;;16.42;78.38;98460.34;4910385;29;20254;-87
2021/12/12 07:29:12;;;;;;;14.33;9.17;;;;;;;13.93;84.92;98327.06;4904980;29;20517;-87
2021/12/12 07:31:40;;;;;;;12.03;6.90;;;;;;;10.39;93.23;97988.47;4905259;29;20179;-88
2021/12/12 07:34:10;;;;;;;30.63;19.20;;;;;;;12.01;94.37;98236.69;4923174;29;20293;-86
2021/12/12 07:36:39;;;;;;;13.07;8.90;;;;;;;11.38;94.05;98081.63;4910128;29;20185;-86
2021/12/12 07:39:09;;;;;;;19.77;11.37;;;;;;;11.38;94.50;98138.22;4908217;29;20171;-86
2021/12/12 07:41:37;;;;;;;18.40;8.83;;;;;;;12.76;95.02;98385.34;4925134;29;20216;-86
2021/12/12 07:44:06;;;;;;;12.83;8.10;;;;;;;10.81;96.45;98099.03;4919982;29;20632;-88
2021/12/12 07:46:33;;;;;;;18.90;11.37;;;;;;;11.65;96.92;98201.28;4921627;29;20280;-86
2021/12/12 07:48:58;;;;;;;23.53;15.73;;;;;;;12.33;95.39;98245.75;4917474;29;20209;-86
2021/12/12 07:51:46;;;;;;;20.97;13.73;;;;;;;14.20;94.80;98574.31;4915419;29;20179;-87
2021/12/12 07:54:18;;;;;;;16.93;10.77;;;;;;;10.83;93.77;97991.94;4887351;29;20237;-88
2021/12/12 07:56:50;;;;;;;12.93;6.90;;;;;;;12.63;92.53;98316.53;4868495;29;20215;-87
2021/12/12 07:59:18;;;;;;;8.40;4.50;;;;;;;13.40;91.49;98494.13;4881312;29;20627;-86
2021/12/12 08:01:49;;;;;;;7.90;3.60;;;;;;;11.78;91.85;98259.06;4882397;29;20577;-86
2021/12/12 08:04:16;;;;;;;15.00;8.20;;;;;;;14.27;91.18;98608.38;4890042;29;20281;-88
2021/12/12 08:06:43;;;;;;;13.13;8.00;;;;;;;14.14;91.05;98593.75;4875619;29;20179;-88
2021/12/12 08:09:14;;;;;;;15.77;8.77;;;;;;;10.86;91.08;98069.59;4896881;29;20723;-87
2021/12/12 08:11:43;;;;;;;27.90;12.33;;;;;;;13.73;91.16;98589.63;4887243;29;20180;-85
2021/12/12 08:14:16;;;;;;;18.63;9.60;;;;;;;13.16;94.47;98558.91;4866475;29;20756;-88
2021/12/12 08:16:41;;;;;;;22.13;11.23;;;;;;;11.34;94.43;98237.81;4884162;29;20179;-87
2021/12/12 08:19:07;;;;;;;19.10;13.10;;;;;;;11.72;94.98;98314.72;4867371;29;20199;-87
2021/12/12 08:21:34;;;;;;;12.00;6.20;;;;;;;12.89;95.42;98560.00;4866968;29;20210;-88
2021/12/12 08:24:06;;;;;;;6.90;3.97;;;;;;;13.08;97.17;98611.22;4882357;29;20160;-88
2021/12/12 08:26:33;;;;;;;9.70;6.10;;;;;;;13.24;95.68;98598.03;4884643;29;20758;-89
2021/12/12 08:28:59;;;;;;;9.77;5.03;;;;;;;11.16;96.66;98296.50;4902584;29;20174;-88
2021/12/12 08:31:26;;;;;;;8.60;5.13;;;;;;;12.46;97.86;98537.06;4903504;29;20189;-87
2021/12/12 08:33:53;;;;;;;8.90;4.57;;;;;;;11.40;99.03;98399.25;4901539;29;20210;-88
2021/12/12 08:36:19;;;;;;;8.57;5.60;;;;;;;12.72;100.00;98616.31;4907885;29;20194;-88
2021/12/12 08:38:44;;;;;;;10.97;6.27;;;;;;;11.47;99.45;98388.44;4903586;29;20186;-89
2021/12/12 08:41:10;;;;;;;7.37;4.33;;;;;;;12.29;98.36;98539.22;4902459;29;20182;-90
2021/12/12 08:43:36;;;;;;;6.03;3.67;;;;;;;9.95;100.00;98201.47;4902101;29;20178;-86
2021/12/12 08:46:13;;;;;;;11.60;5.53;;;;;;;11.52;100.00;98470.50;4918080;29;20186;-89
2021/12/12 08:48:47;;;;;;;8.77;5.10;;;;;;;11.41;100.00;98404.34;4919694;29;20206;-90
2021/12/12 08:51:21;;;;;;;10.13;5.53;;;;;;;12.11;98.40;98510.88;4903819;29;20179;-87
2021/12/12 08:53:50;;;;;;;17.13;8.67;;;;;;;8.86;98.63;97961.97;4919971;29;20234;-88
2021/12/12 08:56:30;;;;;;;11.97;6.27;;;;;;;12.76;98.20;98630.81;4922788;29;20147;-91
2021/12/12 08:58:57;;;;;;;9.53;5.47;;;;;;;10.31;98.43;98196.53;4916486;29;20456;-89
2021/12/12 09:01:23;;;;;;;12.07;6.30;;;;;;;10.64;98.53;98213.41;4923339;29;20187;-89
2021/12/12 09:03:59;;;;;;;9.37;4.60;;;;;;;12.04;97.64;98412.63;4924252;29;20177;-91
2021/12/12 09:06:31;;;;;;;8.73;4.50;;;;;;;11.27;95.95;98312.81;4916518;29;20198;-88
2021/12/12 09:09:03;;;;;;;6.37;4.53;;;;;;;13.44;96.13;98639.94;4914498;29;20211;-89
2021/12/12 09:11:32;;;;;;;7.03;4.73;;;;;;;10.48;95.19;98102.53;4915597;29;20167;-90
2021/12/12 09:14:13;;;;;;;8.17;5.20;;;;;;;10.32;95.90;98107.19;4910879;29;20198;-91
2021/12/12 09:16:47;;;;;;;8.67;4.57;;;;;;;13.66;94.79;98672.59;4925253;29;20182;-90
2021/12/12 09:19:28;;;;;;;8.80;5.03;;;;;;;13.12;94.89;98541.84;4909802;29;20182;-89
2021/12/12 09:22:11;;;;;;;10.57;5.13;;;;;;;12.18;93.86;98375.72;4919664;29;20242;-90
2021/12/12 09:24:46;;;;;;;8.87;5.03;;;;;;;13.78;93.81;98656.72;4901067;29;20178;-89
2021/12/12 09:27:29;;;;;;;12.13;6.43;;;;;;;13.48;95.44;98636.63;4901355;29;20178;-90
2021/12/12 09:30:03;;;;;;;11.17;6.40;;;;;;;11.55;94.19;98285.56;4901076;29;20181;-90
2021/12/12 09:32:51;;;;;;;12.57;6.63;;;;;;;10.49;92.72;98114.34;4907479;29;20170;-90
2021/12/12 09:39:01;;;;;;;;;;;;;;;;;;;;;
2021/12/12 09:45:06;;;;;;;20.23;12.50;;;;;;;13.08;100.00;98659.50;4849694;29;20275;-90
2021/12/12 09:48:13;;;;;;;41.77;24.53;;;;;;;13.44;100.00;98655.19;4832887;29;20188;-90
2021/12/12 09:53:52;;;;;;;59.80;32.23;;;;;;;13.99;96.94;98659.66;4854413;29;20239;-88
2021/12/12 09:56:27;;;;;;;17.53;10.07;;;;;;;10.79;96.76;98199.41;4832835;29;20344;-89
2021/12/12 09:59:23;;;;;;;20.10;12.27;;;;;;;11.15;98.50;98273.69;4830735;29;20172;-88
2021/12/12 10:02:21;;;;;;;16.23;7.60;;;;;;;13.16;100.00;98680.88;4839858;29;20191;-90
2021/12/12 10:04:46;;;;;;;16.43;11.73;;;;;;;12.97;100.00;98674.47;4859541;29;20255;-89
2021/12/12 10:07:49;;;;;;;19.93;11.00;;;;;;;10.41;100.00;98223.78;4841768;29;20687;-90
2021/12/12 10:10:25;;;;;;;55.60;27.43;;;;;;;11.40;100.00;98422.91;4845986;29;20188;-89
2021/12/12 10:13:30;;;;;;;18.17;8.77;;;;;;;12.26;100.00;98643.19;4833406;29;20192;-89
2021/12/12 10:16:17;;;;;;;20.63;9.33;;;;;;;9.15;100.00;98100.72;4835783;29;20264;-89
2021/12/12 10:18:55;;;;;;;25.40;12.23;;;;;;;11.34;100.00;98402.50;4818320;29;20214;-90
2021/12/12 10:21:30;;;;;;;24.37;12.57;;;;;;;12.98;100.00;98666.91;4837263;29;20198;-90
2021/12/12 10:24:32;;;;;;;15.73;7.93;;;;;;;12.55;100.00;98668.41;4819164;29;20204;-89
2021/12/12 10:27:28;;;;;;;19.90;10.50;;;;;;;9.37;100.00;98156.91;4821203;29;20193;-91
2021/12/12 10:30:18;;;;;;;24.00;12.90;;;;;;;12.73;100.00;98668.84;4815262;29;20186;-89
2021/12/12 10:32:50;;;;;;;67.90;30.10;;;;;;;12.50;100.00;98589.59;4802772;29;20221;-90
2021/12/12 10:35:21;;;;;;;66.57;27.87;;;;;;;9.81;100.00;98137.91;4823983;29;20213;-90
2021/12/12 10:37:57;;;;;;;64.70;28.90;;;;;;;11.63;100.00;98479.22;4955619;23;20264;-90
2021/12/12 10:40:45;;;;;;;17.60;8.90;;;;;;;9.36;100.00;98065.97;4915579;29;20209;-90
2021/12/12 10:43:13;;;;;;;12.30;6.53;;;;;;;9.71;100.00;98110.69;4905996;29;20190;-89
2021/12/12 10:46:01;;;;;;;13.93;8.33;;;;;;;10.80;100.00;98272.84;4909836;29;20182;-89
2021/12/12 10:48:46;;;;;;;18.33;9.07;;;;;;;10.25;99.15;98100.25;4919998;29;20203;-91
2021/12/12 10:51:20;;;;;;;17.77;8.33;;;;;;;11.81;98.50;98371.53;4910851;29;20182;-90
2021/12/12 10:54:04;;;;;;;16.63;8.93;;;;;;;13.51;99.67;98665.50;4904918;29;20206;-90
2021/12/12 10:56:39;;;;;;;20.30;9.57;;;;;;;13.43;100.00;98687.38;4904420;29;20202;-89
2021/12/12 10:59:18;;;;;;;14.57;6.90;;;;;;;11.34;100.00;98432.06;4906165;29;20178;-90
2021/12/12 11:01:46;;;;;;;15.53;7.73;;;;;;;9.70;100.00;98169.63;4906318;29;20178;-91
2021/12/12 11:07:01;;;;;;;42.20;23.67;;;;;;;12.85;100.00;98675.06;4974869;23;20575;-89
2021/12/12 11:09:34;;;;;;;60.80;35.43;;;;;;;9.88;100.00;98129.69;4947684;29;20185;-90
2021/12/12 11:12:10;;;;;;;20.83;14.13;;;;;;;13.09;100.00;98668.84;4948425;29;20271;-89
2021/12/12 11:14:45;;;;;;;26.20;18.43;;;;;;;9.66;100.00;98117.31;4965032;29;20664;-89
2021/12/12 11:17:20;;;;;;;19.87;11.90;;;;;;;12.76;100.00;98674.84;4951602;29;20207;-89
2021/12/12 11:19:54;;;;;;;17.97;10.00;;;;;;;12.37;100.00;98618.91;4956370;29;20172;-90
2021/12/12 11:22:30;;;;;;;14.60;8.77;;;;;;;10.99;100.00;98413.41;4975200;29;20175;-87
2021/12/12 11:25:04;;;;;;;13.97;8.30;;;;;;;11.12;100.00;98472.00;4957866;29;20188;-89
2021/12/12 11:27:39;;;;;;;18.13;9.30;;;;;;;12.70;100.00;98692.47;4965887;29;20175;-88
2021/12/12 11:30:18;;;;;;;11.23;7.80;;;;;;;12.34;100.00;98630.66;4947646;29;20176;-90
2021/12/12 11:32:45;;;;;;;18.10;9.17;;;;;;;11.45;100.00;98487.25;4960965;29;20188;-90
2021/12/12 11:35:12;;;;;;;20.53;10.00;;;;;;;10.44;100.00;98318.31;4946528;29;20176;-89
2021/12/12 11:38:14;;;;;;;17.10;9.57;;;;;;;11.37;100.00;98543.63;4951002;29;20184;-87
2021/12/12 11:40:59;;;;;;;21.00;12.90;;;;;;;8.54;100.00;98052.69;4912168;29;20186;-87
2021/12/12 11:43:37;;;;;;;21.40;12.77;;;;;;;12.61;100.00;98699.88;4904817;29;20166;-89
2021/12/12 11:46:10;;;;;;;22.47;13.60;;;;;;;12.07;100.00;98552.22;4904336;29;20736;-90
2021/12/12 11:48:59;;;;;;;14.47;8.27;;;;;;;12.08;100.00;98517.56;4888783;29;20179;-90
2021/12/12 11:51:37;;;;;;;9.27;5.80;;;;;;;12.56;100.00;98625.28;4888414;29;20772;-90
2021/12/12 11:54:41;;;;;;;12.07;6.07;;;;;;;12.52;100.00;98643.81;4905706;29;20195;-87
2021/12/12 11:57:11;;;;;;;12.83;9.20;;;;;;;11.09;100.00;98433.09;4892014;29;20382;-89
2021/12/12 11:59:50;;;;;;;11.33;7.40;;;;;;;12.31;100.00;98686.41;4904298;29;20651;-90
2021/12/12 12:02:15;;;;;;;14.90;9.93;;;;;;;12.40;100.00;98684.13;4889929;29;20325;-88
2021/12/12 12:04:59;;;;;;;48.30;27.20;;;;;;;12.46;100.00;98678.34;4903797;29;20249;-89
2021/12/12 12:07:25;;;;;;;29.30;16.53;;;;;;;12.35;100.00;98676.41;4905587;29;20257;-90
2021/12/12 12:10:26;;;;;;;38.87;20.20;;;;;;;12.00;100.00;98630.66;4905291;29;20237;-90
2021/12/12 12:13:14;;;;;;;34.23;20.90;;;;;;;12.04;100.00;98684.03;4894716;29;20206;-89
2021/12/12 12:15:55;;;;;;;72.00;36.37;;;;;;;11.93;100.00;98679.50;4907882;29;20216;-90
2021/12/12 12:18:48;;;;;;;55.83;31.70;;;;;;;11.86;100.00;98665.81;4951106;29;20204;-88
2021/12/12 12:21:27;;;;;;;80.80;44.13;;;;;;;12.02;100.00;98665.41;4964867;29;20176;-88